createdAt,value
2022-08-06T00:00:03.120Z,98473.69
2022-08-06T00:02:22.596Z,98472.63
2022-08-06T00:04:52.776Z,98478.03
2022-08-06T00:07:22.722Z,98477.56
2022-08-06T00:10:00.000Z,98485.38
2022-08-06T00:12:32.400Z,98483.31
2022-08-06T00:15:00.881Z,98497.66
2022-08-06T00:17:31.763Z,98503.69
2022-08-06T00:20:01.023Z,98499.84
2022-08-06T00:22:29.023Z,98498.22
2022-08-06T00:24:56.762Z,98499.78
2022-08-06T00:27:29.178Z,98502.44
2022-08-06T00:30:05.978Z,98504.50
2022-08-06T00:32:33.343Z,98513.56
2022-08-06T00:35:04.362Z,98509.09
2022-08-06T00:37:57.172Z,98523.56
2022-08-06T00:40:24.658Z,98516.06
2022-08-06T00:42:54.626Z,98515.56
2022-08-06T00:45:24.261Z,98514.72
2022-08-06T00:48:02.812Z,98515.94
2022-08-06T00:50:30.863Z,98534.19
2022-08-06T00:52:58.492Z,98537.38
2022-08-06T00:55:32.021Z,98547.38
2022-08-06T00:58:05.227Z,98555.44
2022-08-06T01:00:36.967Z,98562.66
2022-08-06T01:03:27.355Z,98574.00
2022-08-06T01:06:53.228Z,98576.94
2022-08-06T01:08:42.167Z,98587.22
2022-08-06T01:11:09.873Z,98583.09
2022-08-06T01:14:01.813Z,98585.22
2022-08-06T01:16:45.406Z,98592.19
2022-08-06T01:21:22.110Z,98593.91
2022-08-06T01:22:40.163Z,98595.66
2022-08-06T01:25:15.151Z,98591.03
2022-08-06T01:28:12.346Z,98599.31
2022-08-06T01:30:47.780Z,98608.81
2022-08-06T01:33:24.977Z,98606.72
2022-08-06T01:36:03.121Z,98622.63
2022-08-06T01:38:36.416Z,98628.38
2022-08-06T01:41:08.310Z,98634.97
2022-08-06T01:44:07.529Z,98635.38
2022-08-06T01:46:25.473Z,98635.78
2022-08-06T01:48:56.551Z,98641.19
2022-08-06T01:52:14.427Z,98647.72
2022-08-06T01:54:15.250Z,98647.09
2022-08-06T01:56:57.896Z,98653.78
2022-08-06T01:59:32.126Z,98667.91
2022-08-06T02:02:01.413Z,98669.44
2022-08-06T02:04:39.271Z,98676.09
2022-08-06T02:08:04.118Z,98677.22
2022-08-06T02:09:57.975Z,98681.41
2022-08-06T02:12:27.018Z,98681.81
2022-08-06T02:14:58.041Z,98686.59
2022-08-06T02:18:04.620Z,98681.09
2022-08-06T02:20:36.821Z,98687.31
2022-08-06T02:23:08.619Z,98694.19
2022-08-06T02:25:41.421Z,98692.50
2022-08-06T02:28:10.925Z,98692.78
2022-08-06T02:30:42.675Z,98709.09
2022-08-06T02:33:10.500Z,98706.00
2022-08-06T02:35:57.852Z,98706.34
2022-08-06T02:38:36.809Z,98705.50
2022-08-06T02:41:22.149Z,98708.50
2022-08-06T02:43:55.480Z,98713.09
2022-08-06T02:46:39.376Z,98708.09
2022-08-06T02:49:25.293Z,98706.75
2022-08-06T02:52:17.760Z,98705.69
2022-08-06T02:54:53.378Z,98710.75
2022-08-06T02:57:48.349Z,98707.09
2022-08-06T03:00:18.953Z,98709.50
2022-08-06T03:02:48.165Z,98716.88
2022-08-06T03:05:19.763Z,98715.78
2022-08-06T03:08:10.743Z,98713.97
2022-08-06T03:10:38.362Z,98707.91
2022-08-06T03:13:10.951Z,98711.53
2022-08-06T03:15:58.206Z,98708.72
2022-08-06T03:18:26.808Z,98708.78
2022-08-06T03:20:56.004Z,98715.34
2022-08-06T03:23:26.834Z,98718.25
2022-08-06T03:25:55.244Z,98703.75
2022-08-06T03:28:22.844Z,98706.03
2022-08-06T03:30:55.509Z,98704.63
2022-08-06T03:33:29.098Z,98709.75
2022-08-06T03:36:00.812Z,98705.38
2022-08-06T03:38:33.582Z,98704.84
2022-08-06T03:41:01.927Z,98712.22
2022-08-06T03:43:45.809Z,98708.00
2022-08-06T03:46:28.498Z,98706.22
2022-08-06T03:48:59.678Z,98701.94
2022-08-06T03:51:50.365Z,98706.69
2022-08-06T03:54:30.403Z,98712.22
2022-08-06T03:57:08.119Z,98703.19
2022-08-06T03:59:43.625Z,98709.06
2022-08-06T04:02:36.908Z,98707.31
2022-08-06T04:05:15.558Z,98716.22
2022-08-06T04:07:54.527Z,98717.38
2022-08-06T04:10:32.941Z,98718.28
2022-08-06T04:13:38.253Z,98719.66
2022-08-06T04:15:51.277Z,98719.34
2022-08-06T04:18:24.980Z,98717.09
2022-08-06T04:21:05.191Z,98729.63
2022-08-06T04:23:42.756Z,98736.69
2022-08-06T04:26:14.788Z,98732.97
2022-08-06T04:28:57.179Z,98729.44
2022-08-06T04:32:13.551Z,98731.94
2022-08-06T04:34:16.861Z,98739.78
2022-08-06T04:36:53.895Z,98737.88
2022-08-06T04:39:37.831Z,98743.88
2022-08-06T04:42:12.851Z,98751.25
2022-08-06T04:44:44.776Z,98751.09
2022-08-06T04:47:15.082Z,98757.09
2022-08-06T04:49:58.349Z,98757.63
2022-08-06T04:52:36.085Z,98749.06
2022-08-06T04:55:24.433Z,98746.69
2022-08-06T04:57:57.086Z,98749.00
2022-08-06T05:00:33.576Z,98753.31
2022-08-06T05:03:01.827Z,98759.53
2022-08-06T05:05:31.550Z,98755.38
2022-08-06T05:08:01.575Z,98761.00
2022-08-06T05:10:47.588Z,98757.66
2022-08-06T05:13:28.499Z,98764.38
2022-08-06T05:16:07.152Z,98763.31
2022-08-06T05:19:20.365Z,98768.97
2022-08-06T05:22:05.359Z,98761.66
2022-08-06T05:24:39.527Z,98766.91
2022-08-06T05:27:11.897Z,98777.84
2022-08-06T05:29:41.564Z,98779.47
2022-08-06T05:32:19.500Z,98777.31
2022-08-06T05:34:53.049Z,98777.81
2022-08-06T05:37:26.462Z,98786.50
2022-08-06T05:40:09.962Z,98786.19
2022-08-06T05:42:38.811Z,98789.19
2022-08-06T05:45:09.773Z,98791.28
2022-08-06T05:47:55.234Z,98782.13
2022-08-06T05:50:28.338Z,98793.50
2022-08-06T05:53:02.814Z,98791.59
2022-08-06T05:55:38.559Z,98784.81
2022-08-06T05:58:08.811Z,98784.19
2022-08-06T06:00:43.700Z,98787.69
2022-08-06T06:03:24.539Z,98794.31
2022-08-06T06:06:10.865Z,98803.56
2022-08-06T06:08:55.376Z,98804.41
2022-08-06T06:11:55.534Z,98809.31
2022-08-06T06:14:32.498Z,98812.81
2022-08-06T06:17:13.614Z,98814.91
2022-08-06T06:19:54.107Z,98822.16
2022-08-06T06:22:27.846Z,98813.47
2022-08-06T06:25:02.553Z,98818.31
2022-08-06T06:27:51.960Z,98816.91
2022-08-06T06:30:40.187Z,98811.19
2022-08-06T06:33:37.103Z,98814.91
2022-08-06T06:36:24.031Z,98829.97
2022-08-06T06:39:04.902Z,98823.22
2022-08-06T06:41:44.602Z,98827.75
2022-08-06T06:44:24.280Z,98828.47
2022-08-06T06:47:16.312Z,98830.81
2022-08-06T06:50:03.222Z,98841.13
2022-08-06T06:52:35.982Z,98845.69
2022-08-06T06:55:15.617Z,98846.16
2022-08-06T06:57:51.704Z,98842.50
2022-08-06T07:00:44.205Z,98849.56
2022-08-06T07:03:09.738Z,98851.16
2022-08-06T07:06:02.601Z,98861.13
2022-08-06T07:08:31.803Z,98855.31
2022-08-06T07:11:06.624Z,98867.47
2022-08-06T07:13:47.382Z,98861.84
2022-08-06T07:16:35.008Z,98864.25
2022-08-06T07:19:05.186Z,98863.97
2022-08-06T07:21:32.666Z,98867.47
2022-08-06T07:24:08.366Z,98862.88
2022-08-06T07:26:50.966Z,98867.72
2022-08-06T07:29:49.599Z,98875.03
2022-08-06T07:32:30.988Z,98864.00
2022-08-06T07:34:56.497Z,98868.63
2022-08-06T07:37:25.446Z,98876.16
2022-08-06T07:39:56.737Z,98872.97
2022-08-06T07:42:25.470Z,98870.56
2022-08-06T07:45:01.211Z,98877.03
2022-08-06T07:47:46.161Z,98876.81
2022-08-06T07:50:23.777Z,98886.81
2022-08-06T07:52:53.354Z,98892.47
2022-08-06T07:55:26.274Z,98902.72
2022-08-06T07:57:59.956Z,98903.81
2022-08-06T08:00:28.995Z,98904.44
2022-08-06T08:03:11.688Z,98907.19
2022-08-06T08:06:03.191Z,98907.50
2022-08-06T08:08:31.773Z,98910.47
2022-08-06T08:11:01.583Z,98910.28
2022-08-06T08:13:41.672Z,98909.00
2022-08-06T08:16:20.302Z,98920.38
2022-08-06T08:18:55.664Z,98914.56
2022-08-06T08:21:22.957Z,98922.09
2022-08-06T08:23:55.385Z,98926.47
2022-08-06T08:26:25.261Z,98919.25
2022-08-06T08:28:52.458Z,98927.63
2022-08-06T08:31:20.891Z,98924.41
2022-08-06T08:33:52.575Z,98930.38
2022-08-06T08:36:22.129Z,98933.63
2022-08-06T08:39:04.213Z,98937.44
2022-08-06T08:41:48.159Z,98935.31
2022-08-06T08:44:26.443Z,98932.34
2022-08-06T08:46:58.834Z,98932.91
2022-08-06T08:49:35.606Z,98931.00
2022-08-06T08:52:11.609Z,98934.53
2022-08-06T08:54:42.224Z,98931.06
2022-08-06T08:58:40.142Z,98936.47
2022-08-06T09:00:01.666Z,98951.53
2022-08-06T09:02:30.953Z,98951.31
2022-08-06T09:04:59.084Z,98958.56
2022-08-06T09:07:35.585Z,98962.13
2022-08-06T09:10:06.823Z,98958.38
2022-08-06T09:12:45.478Z,98966.72
2022-08-06T09:15:17.110Z,98960.78
2022-08-06T09:18:12.254Z,98968.88
2022-08-06T09:20:35.227Z,98975.31
2022-08-06T09:23:02.490Z,98973.97
2022-08-06T09:25:50.887Z,98971.56
2022-08-06T09:28:36.396Z,98974.53
2022-08-06T09:31:10.473Z,98976.72
2022-08-06T09:34:19.010Z,98973.72
2022-08-06T09:36:52.260Z,98978.56
2022-08-06T09:39:45.998Z,98982.88
2022-08-06T09:42:43.572Z,98993.63
2022-08-06T09:45:15.106Z,98992.03
2022-08-06T09:47:57.741Z,99001.69
2022-08-06T09:50:38.621Z,99005.47
2022-08-06T09:53:12.891Z,98998.47
2022-08-06T09:55:41.665Z,99005.47
2022-08-06T09:58:08.591Z,99013.00
2022-08-06T10:00:38.842Z,99009.50
2022-08-06T10:04:04.858Z,99013.53
2022-08-06T10:06:14.513Z,99012.19
2022-08-06T10:08:46.153Z,99012.72
2022-08-06T10:11:41.737Z,99017.28
2022-08-06T10:14:35.486Z,99021.88
2022-08-06T10:17:09.107Z,99014.34
2022-08-06T10:19:38.166Z,99011.94
2022-08-06T10:22:10.368Z,99017.03
2022-08-06T10:24:48.780Z,99022.16
2022-08-06T10:27:22.579Z,99021.88
2022-08-06T10:29:52.811Z,99023.75
2022-08-06T10:32:35.288Z,99027.78
2022-08-06T10:35:12.103Z,99033.19
2022-08-06T10:37:47.899Z,99042.59
2022-08-06T10:40:30.695Z,99037.47
2022-08-06T10:43:00.531Z,99050.66
2022-08-06T10:45:49.184Z,99051.44
2022-08-06T10:48:59.387Z,99065.16
2022-08-06T10:51:05.787Z,99060.84
2022-08-06T10:54:01.955Z,99058.16
2022-08-06T10:56:28.603Z,99067.84
2022-08-06T10:59:00.554Z,99062.19
2022-08-06T11:01:43.603Z,99068.13
2022-08-06T11:04:44.035Z,99068.41
2022-08-06T11:08:08.305Z,99070.53
2022-08-06T11:10:53.483Z,99068.13
2022-08-06T11:13:36.856Z,99069.69
2022-08-06T11:16:04.732Z,99061.34
2022-08-06T11:18:31.391Z,99058.16
2022-08-06T11:21:01.356Z,99060.84
2022-08-06T11:23:58.609Z,99055.72
2022-08-06T11:26:36.451Z,99060.81
2022-08-06T11:29:07.977Z,99055.72
2022-08-06T11:31:56.412Z,99056.50
2022-08-06T11:34:42.153Z,99058.66
2022-08-06T11:38:02.949Z,99065.91
2022-08-06T11:41:06.143Z,99060.81
2022-08-06T11:44:03.251Z,99067.22
2022-08-06T11:46:35.929Z,99070.47
2022-08-06T11:49:06.150Z,99061.88
2022-08-06T11:51:42.604Z,99058.38
2022-08-06T11:54:28.352Z,99061.06
2022-08-06T11:57:19.481Z,99057.84
2022-08-06T12:00:08.864Z,99067.25
2022-08-06T12:02:48.174Z,99068.31
2022-08-06T12:05:20.005Z,99067.25
2022-08-06T12:08:38.888Z,99066.44
2022-08-06T12:11:22.282Z,99069.41
2022-08-06T12:13:57.565Z,99066.72
2022-08-06T12:16:39.891Z,99068.34
2022-08-06T12:19:13.767Z,99076.38
2022-08-06T12:21:44.876Z,99069.13
2022-08-06T12:24:14.688Z,99074.78
2022-08-06T12:26:41.464Z,99073.19
2022-08-06T12:29:09.404Z,99079.34
2022-08-06T12:31:44.125Z,99073.69
2022-08-06T12:34:27.617Z,99074.78
2022-08-06T12:36:54.897Z,99081.22
2022-08-06T12:39:48.118Z,99079.09
2022-08-06T12:42:53.108Z,99081.50
2022-08-06T12:46:04.488Z,99088.75
2022-08-06T12:48:11.189Z,99081.22
2022-08-06T12:50:41.991Z,99084.19
2022-08-06T12:53:11.520Z,99083.09
2022-08-06T12:55:48.687Z,99080.19
2022-08-06T12:58:43.083Z,99086.88
2022-08-06T13:01:13.289Z,99090.94
2022-08-06T13:03:49.192Z,99089.03
2022-08-06T13:06:32.384Z,99092.00
2022-08-06T13:09:03.647Z,99086.06
2022-08-06T13:11:36.955Z,99086.41
2022-08-06T13:14:17.536Z,99082.38
2022-08-06T13:16:55.120Z,99091.22
2022-08-06T13:19:32.450Z,99086.16
2022-08-06T13:22:03.223Z,99086.41
2022-08-06T13:24:35.413Z,99087.13
2022-08-06T13:27:06.002Z,99076.97
2022-08-06T13:30:35.833Z,99092.00
2022-08-06T13:32:33.516Z,99083.38
2022-08-06T13:35:11.367Z,99082.31
2022-08-06T13:37:55.689Z,99085.00
2022-08-06T13:40:38.390Z,99085.28
2022-08-06T13:43:04.996Z,99084.50
2022-08-06T13:45:56.702Z,99078.03
2022-08-06T13:48:23.523Z,99083.41
2022-08-06T13:50:50.333Z,99089.56
2022-08-06T13:53:17.423Z,99083.94
2022-08-06T13:56:02.301Z,99091.16
2022-08-06T13:58:30.671Z,99087.69
2022-08-06T14:00:58.013Z,99088.47
2022-08-06T14:03:26.530Z,99091.44
2022-08-06T14:05:53.248Z,99093.59
2022-08-06T14:08:34.613Z,99091.66
2022-08-06T14:11:03.035Z,99091.97
2022-08-06T14:13:30.274Z,99089.28
2022-08-06T14:15:57.003Z,99093.84
2022-08-06T14:18:32.056Z,99088.47
2022-08-06T14:21:01.662Z,99100.56
2022-08-06T14:23:40.445Z,99104.41
2022-08-06T14:26:14.786Z,99107.09
2022-08-06T14:28:48.506Z,99112.47
2022-08-06T14:31:29.662Z,99106.53
2022-08-06T14:33:59.793Z,99106.25
2022-08-06T14:36:29.319Z,99106.50
2022-08-06T14:39:00.260Z,99101.44
2022-08-06T14:42:02.042Z,99100.06
2022-08-06T14:44:45.919Z,99095.78
2022-08-06T14:47:56.854Z,99093.88
2022-08-06T14:49:59.687Z,99094.47
2022-08-06T14:52:26.452Z,99094.19
2022-08-06T14:54:55.950Z,99101.72
2022-08-06T14:58:03.912Z,99099.56
2022-08-06T15:00:21.553Z,99100.63
2022-08-06T15:02:59.812Z,99090.44
2022-08-06T15:05:41.708Z,99087.47
2022-08-06T15:08:13.278Z,99089.34
2022-08-06T15:10:40.020Z,99086.66
2022-08-06T15:13:06.935Z,99083.97
2022-08-06T15:15:37.106Z,99082.91
2022-08-06T15:18:40.596Z,99079.66
2022-08-06T15:21:03.503Z,99087.19
2022-08-06T15:23:31.131Z,99090.69
2022-08-06T15:26:47.226Z,99098.22
2022-08-06T15:29:10.970Z,99096.59
2022-08-06T15:31:42.635Z,99095.81
2022-08-06T15:34:12.418Z,99091.53
2022-08-06T15:36:40.043Z,99098.75
2022-08-06T15:39:52.381Z,99091.50
2022-08-06T15:42:13.071Z,99092.59
2022-08-06T15:44:41.391Z,99093.94
2022-08-06T15:47:08.776Z,99091.75
2022-08-06T15:50:02.629Z,99094.72
2022-08-06T15:52:26.325Z,99095.81
2022-08-06T15:54:53.716Z,99090.44
2022-08-06T15:58:05.371Z,99084.78
2022-08-06T16:00:17.443Z,99093.66
2022-08-06T16:02:50.001Z,99096.88
2022-08-06T16:05:32.287Z,99098.78
2022-08-06T16:08:06.007Z,99100.66
2022-08-06T16:10:32.988Z,99098.47
2022-08-06T16:13:00.141Z,99101.72
2022-08-06T16:15:26.883Z,99101.72
2022-08-06T16:18:09.328Z,99100.88
2022-08-06T16:20:43.641Z,99102.25
2022-08-06T16:23:54.898Z,99097.38
2022-08-06T16:26:10.013Z,99095.47
2022-08-06T16:28:48.640Z,99098.16
2022-08-06T16:31:16.076Z,99093.34
2022-08-06T16:33:54.448Z,99091.16
2022-08-06T16:36:32.217Z,99100.03
2022-08-06T16:39:00.295Z,99094.13
2022-08-06T16:44:17.247Z,99098.97
2022-08-06T16:47:00.953Z,99096.53
2022-08-06T16:50:17.683Z,99093.31
2022-08-06T16:52:42.871Z,99093.06
2022-08-06T16:55:08.624Z,99097.91
2022-08-06T16:57:37.299Z,99097.88
2022-08-06T17:00:07.312Z,99096.28
2022-08-06T17:02:37.652Z,99093.31
2022-08-06T17:07:59.937Z,99103.78
2022-08-06T17:10:39.490Z,99105.41
2022-08-06T17:13:09.400Z,99109.44
2022-08-06T17:18:28.522Z,99100.53
2022-08-06T17:20:56.114Z,99103.75
2022-08-06T17:23:27.199Z,99097.56
2022-08-06T17:26:01.182Z,99104.28
2022-08-06T17:28:31.462Z,99107.53
2022-08-06T17:30:58.700Z,99109.94
2022-08-06T17:33:25.311Z,99101.53
2022-08-06T17:36:32.282Z,99101.81
2022-08-06T17:38:40.191Z,99095.09
2022-08-06T17:43:56.760Z,99098.88
2022-08-06T17:46:28.555Z,99093.47
2022-08-06T17:49:00.357Z,99103.13
2022-08-06T17:51:33.848Z,99094.53
2022-08-06T17:54:26.991Z,99090.78
2022-08-06T17:56:51.518Z,99096.66
2022-08-06T17:59:21.929Z,99096.16
2022-08-06T18:01:51.066Z,99088.84
2022-08-06T18:04:22.055Z,99087.50
2022-08-06T18:06:55.707Z,99093.19
2022-08-06T18:10:11.755Z,99101.25
2022-08-06T18:12:11.882Z,99093.97
2022-08-06T18:14:38.858Z,99095.31
2022-08-06T18:17:06.853Z,99096.13
2022-08-06T18:19:36.601Z,99091.78
2022-08-06T18:22:20.979Z,99089.69
2022-08-06T18:24:50.549Z,99085.09
2022-08-06T18:27:53.574Z,99088.06
2022-08-06T18:30:04.844Z,99094.53
2022-08-06T18:32:33.825Z,99088.34
2022-08-06T18:35:04.301Z,99093.69
2022-08-06T18:38:00.347Z,99094.19
2022-08-06T18:40:38.956Z,99087.00
2022-08-06T18:43:06.343Z,99095.06
2022-08-06T18:45:37.015Z,99095.59
2022-08-06T18:48:06.273Z,99097.75
2022-08-06T18:50:34.591Z,99098.53
2022-08-06T18:53:02.963Z,99089.94
2022-08-06T18:55:53.900Z,99103.09
2022-08-06T18:58:18.433Z,99105.22
2022-08-06T19:00:52.622Z,99103.09
2022-08-06T19:03:19.689Z,99106.56
2022-08-06T19:05:51.321Z,99099.56
2022-08-06T19:08:29.332Z,99100.91
2022-08-06T19:11:00.900Z,99106.03
2022-08-06T19:13:55.191Z,99103.09
2022-08-06T19:16:19.505Z,99102.28
2022-08-06T19:18:50.989Z,99101.75
2022-08-06T19:21:18.121Z,99103.59
2022-08-06T19:24:02.448Z,99109.53
2022-08-06T19:26:31.830Z,99112.50
2022-08-06T19:28:59.779Z,99106.59
2022-08-06T19:31:41.915Z,99110.06
2022-08-06T19:34:14.543Z,99111.41
2022-08-06T19:36:43.987Z,99099.59
2022-08-06T19:39:52.991Z,99110.88
2022-08-06T19:42:01.237Z,99109.50
2022-08-06T19:44:33.030Z,99107.88
2022-08-06T19:47:06.007Z,99108.72
2022-08-06T19:49:42.394Z,99109.53
2022-08-06T19:52:09.988Z,99104.69
2022-08-06T19:54:38.380Z,99105.22
2022-08-06T19:57:13.400Z,99108.19
2022-08-06T20:00:54.140Z,99114.31
2022-08-06T20:02:29.462Z,99119.13
2022-08-06T20:04:57.894Z,99115.84
2022-08-06T20:07:27.585Z,99117.22
2022-08-06T20:10:01.640Z,99119.91
2022-08-06T20:12:34.982Z,99121.81
2022-08-06T20:15:06.514Z,99123.72
2022-08-06T20:17:49.339Z,99122.88
2022-08-06T20:20:29.001Z,99130.34
2022-08-06T20:22:59.250Z,99132.44
2022-08-06T20:25:26.555Z,99135.41
2022-08-06T20:29:07.784Z,99137.56
2022-08-06T20:30:49.703Z,99130.53
2022-08-06T20:33:24.383Z,99128.38
2022-08-06T20:35:57.956Z,99130.50
2022-08-06T20:38:40.061Z,99130.75
2022-08-06T20:41:57.877Z,99125.09
2022-08-06T20:44:05.422Z,99122.69
2022-08-06T20:49:47.701Z,99130.66
2022-08-06T20:52:17.697Z,99140.53
2022-08-06T20:54:51.939Z,99135.19
2022-08-06T20:57:26.570Z,99131.16
2022-08-06T20:59:54.060Z,99133.03
2022-08-06T21:02:25.993Z,99136.50
2022-08-06T21:05:13.868Z,99138.06
2022-08-06T21:07:50.860Z,99139.63
2022-08-06T21:10:27.091Z,99131.06
2022-08-06T21:13:02.252Z,99130.53
2022-08-06T21:15:54.612Z,99131.56
2022-08-06T21:18:20.740Z,99128.84
2022-08-06T21:20:51.282Z,99125.03
2022-08-06T21:23:21.238Z,99121.22
2022-08-06T21:25:53.627Z,99125.50
2022-08-06T21:28:25.918Z,99121.19
2022-08-06T21:30:53.556Z,99126.59
2022-08-06T21:33:20.460Z,99118.00
2022-08-06T21:35:50.407Z,99114.50
2022-08-06T21:38:24.628Z,99120.94
2022-08-06T21:40:54.534Z,99116.41
2022-08-06T21:43:29.070Z,99114.84
2022-08-06T21:46:08.279Z,99112.47
2022-08-06T21:48:36.148Z,99119.19
2022-08-06T21:51:02.747Z,99110.88
2022-08-06T21:53:48.844Z,99116.19
2022-08-06T21:56:36.819Z,99118.00
2022-08-06T21:59:10.293Z,99112.78
2022-08-06T22:02:08.980Z,99115.19
2022-08-06T22:04:38.328Z,99113.94
2022-08-06T22:07:10.377Z,99108.53
2022-08-06T22:09:41.013Z,99104.25
2022-08-06T22:12:39.153Z,99097.88
2022-08-06T22:14:58.716Z,99097.41
2022-08-06T22:18:00.209Z,99098.75
2022-08-06T22:20:21.818Z,99098.47
2022-08-06T22:22:52.899Z,99107.00
2022-08-06T22:25:22.638Z,99099.44
2022-08-06T22:27:54.687Z,99105.91
2022-08-06T22:30:42.607Z,99108.59
2022-08-06T22:33:11.545Z,99099.19
2022-08-06T22:35:57.781Z,99091.97
2022-08-06T22:38:27.191Z,99091.16
2022-08-06T22:40:54.706Z,99094.97
2022-08-06T22:43:29.851Z,99094.66
2022-08-06T22:46:09.718Z,99091.13
2022-08-06T22:48:37.492Z,99092.47
2022-08-06T22:51:15.729Z,99097.28
2022-08-06T22:54:30.130Z,99092.66
2022-08-06T22:56:36.372Z,99094.00
2022-08-06T22:59:18.756Z,99088.88
2022-08-06T23:02:03.443Z,99091.88
2022-08-06T23:04:37.600Z,99086.78
2022-08-06T23:07:09.209Z,99092.66
2022-08-06T23:09:39.531Z,99087.03
2022-08-06T23:12:07.540Z,99092.13
2022-08-06T23:14:34.528Z,99080.69
2022-08-06T23:17:06.060Z,99077.72
2022-08-06T23:19:36.285Z,99078.75
2022-08-06T23:22:22.947Z,99078.69
2022-08-06T23:25:03.462Z,99078.91
2022-08-06T23:27:46.578Z,99073.00
2022-08-06T23:30:19.935Z,99076.19
2022-08-06T23:32:49.002Z,99070.69
2022-08-06T23:35:35.830Z,99073.44
2022-08-06T23:38:30.964Z,99073.56
2022-08-06T23:40:51.534Z,99069.22
2022-08-06T23:43:19.597Z,99071.69
2022-08-06T23:45:48.201Z,99072.19
2022-08-06T23:48:16.780Z,99075.75
2022-08-06T23:50:53.224Z,99078.78
2022-08-06T23:54:06.123Z,99071.84
2022-08-06T23:56:13.152Z,99068.09
2022-08-06T23:58:48.636Z,99074.31
